Impacts TAF Board
For situational awareness. Not to be used for flight planning purposes.
IDs:

KBFM - Mobile/Downtown Arpt, AL, US

Issued at 0521 UTC 24 Jan 2019
Updated at 0715 UTC 24 Jan 2019
Potential Impact None Slight Moderate High
Time0702Z 24/08Z 24/09Z 24/10Z 24/11Z 24/12Z 24/13Z 24/14Z 24/15Z 24/16Z 24/17Z 24/18Z 24/19Z 24/20Z>>
Type OBS PRVL PRVL PRVL PRVL PRVL PRVL PRVL PRVL PRVL PRVL PRVL PRVL PRVL
VIS 10 >6 >6 >6 >6 >6 >6 >6 >6 >6 >6 >6 >6 >6
CIG 13 15 15 15 15 -- -- -- -- -- -- -- -- --
Cover OVC OVC OVC OVC OVC SCT SCT SCT SCT SKC SKC SKC SKC SKC
FltCat MVFR MVFR MVFR MVFR MVFR VFR VFR VFR VFR VFR VFR VFR VFR VFR
WX -- -- -- -- -- -- -- -- -- -- -- -- -- --
WDir 310 330 330 330 330 340 340 340 340 340 340 340 340 340
WSpd 13 10 10 10 10 11 11 11 11 9 9 9 9 9
WGst 22 20 20 20 20 -- -- -- -- 15 15 15 15 15
Raw TAF
KBFM 240521Z 2406/2506 33010G20KT P6SM SCT009 OVC015
  FM241200 34011KT P6SM SCT020
  FM241600 34009G15KT P6SM SKC
  FM242100 32006KT P6SM SKC


Raw METAR
KBFM 240702Z AUTO 31013G22KT 10SM SCT009 OVC013 08/06 A2993 RMK AO2 T00780061
KBFM 240653Z AUTO 30012G20KT 10SM BKN009 OVC013 08/07 A2994 RMK AO2 CIG 006V012 SLP139 T00780067
KBFM 240553Z AUTO 30007G17KT 10SM BKN008 BKN120 09/08 A2989 RMK AO2 PRESRR SLP122 P0001 60007 T00890078 10139 20089 401940089 51012
KBFM 240549Z AUTO 30010KT 10SM BKN008 09/08 A2988 RMK AO2 P0001
KBFM 240518Z AUTO 30018G24KT 10SM BKN010 OVC018 09/08 A2992 RMK AO2 CIG 008V013 P0001 T00940083
KBFM 240453Z AUTO 29011G20KT 10SM FEW008 OVC016 10/09 A2991 RMK AO2 RAE51 SLP129 P0001 T01000094

METAR Board
Radar Display
Forecast Discussion
For situational awareness. Not to be used for flight planning purposes.